createdAt,value
2019-04-25T00:09:08.274Z,100.00
2019-04-25T00:24:25.585Z,100.00
2019-04-25T00:39:28.157Z,100.00
2019-04-25T00:54:31.590Z,100.00
2019-04-25T01:09:37.845Z,100.00
2019-04-25T01:24:41.320Z,100.00
2019-04-25T01:39:49.257Z,100.00
2019-04-25T01:54:53.131Z,100.00
2019-04-25T02:09:58.367Z,100.00
2019-04-25T02:25:04.359Z,100.00
2019-04-25T02:40:09.387Z,100.00
2019-04-25T02:55:29.589Z,100.00
2019-04-25T03:10:19.409Z,100.00
2019-04-25T03:25:24.592Z,100.00
2019-04-25T03:40:27.085Z,100.00
2019-04-25T03:55:31.372Z,100.00
2019-04-25T04:10:37.751Z,100.00
2019-04-25T04:25:41.477Z,100.00
2019-04-25T04:40:44.312Z,100.00
2019-04-25T04:55:48.299Z,93.59
2019-04-25T05:10:50.874Z,84.09
2019-04-25T05:25:53.933Z,72.89
2019-04-25T05:41:01.027Z,65.56
2019-04-25T05:56:04.642Z,63.75
2019-04-25T06:11:09.207Z,56.49
2019-04-25T06:26:23.043Z,51.09
2019-04-25T06:41:21.079Z,49.20
2019-04-25T06:56:26.084Z,45.95
2019-04-25T07:11:30.397Z,43.65
2019-04-25T07:26:44.352Z,39.75
2019-04-25T07:41:47.037Z,40.62
2019-04-25T07:56:49.609Z,41.36
2019-04-25T08:11:53.192Z,37.99
2019-04-25T08:26:56.767Z,34.60
2019-04-25T08:41:59.324Z,30.74
2019-04-25T08:57:04.369Z,33.58
2019-04-25T09:12:08.050Z,34.04
2019-04-25T09:27:10.606Z,34.36
2019-04-25T09:42:15.140Z,32.93
2019-04-25T09:57:26.001Z,34.62
2019-04-25T10:12:29.094Z,35.06
2019-04-25T10:27:32.611Z,32.09
2019-04-25T10:42:35.397Z,34.05
2019-04-25T10:57:38.889Z,32.85
2019-04-25T11:12:44.329Z,30.73
2019-04-25T11:27:49.670Z,28.97
2019-04-25T11:42:54.244Z,31.96
2019-04-25T11:57:57.331Z,34.49
2019-04-25T12:12:59.898Z,35.83
2019-04-25T12:28:04.570Z,37.48
2019-04-25T12:43:07.848Z,38.39
2019-04-25T12:58:13.210Z,38.83
2019-04-25T13:13:17.317Z,38.26
2019-04-25T13:28:24.370Z,41.71
2019-04-25T13:43:28.681Z,42.12
2019-04-25T13:58:32.150Z,42.02
2019-04-25T14:13:36.137Z,42.72
2019-04-25T14:28:40.770Z,42.71
2019-04-25T14:43:43.354Z,44.89
2019-04-25T14:58:46.660Z,49.58
2019-04-25T15:13:50.183Z,58.02
2019-04-25T15:28:52.970Z,65.92
2019-04-25T15:42:34.007Z,64.97
2019-04-25T15:52:36.859Z,60.18
2019-04-25T16:02:39.419Z,61.17
2019-04-25T16:12:42.945Z,63.53
2019-04-25T16:22:45.547Z,69.33
2019-04-25T16:32:50.009Z,68.26
2019-04-25T16:42:53.271Z,65.32
2019-04-25T16:52:56.061Z,65.73
2019-04-25T17:02:58.646Z,70.07
2019-04-25T17:13:04.362Z,70.40
2019-04-25T17:23:09.017Z,72.43
2019-04-25T17:33:26.359Z,82.26
2019-04-25T17:43:29.711Z,90.74
2019-04-25T17:53:33.016Z,99.15
2019-04-25T18:03:37.256Z,95.17
2019-04-25T18:13:42.492Z,100.00
2019-04-25T18:23:49.415Z,100.00
2019-04-25T18:33:56.470Z,100.00
2019-04-25T18:44:03.037Z,100.00
2019-04-25T18:54:11.286Z,100.00
2019-04-25T19:14:47.591Z,100.00
2019-04-25T19:24:50.305Z,100.00
2019-04-25T19:34:54.466Z,100.00
2019-04-25T19:44:57.819Z,100.00
2019-04-25T19:55:00.678Z,100.00
2019-04-25T20:05:05.615Z,100.00
2019-04-25T20:15:12.152Z,100.00
2019-04-25T20:25:16.929Z,100.00
2019-04-25T20:35:21.166Z,100.00
2019-04-25T20:45:24.078Z,100.00
2019-04-25T20:55:28.504Z,100.00
2019-04-25T21:05:32.046Z,100.00
2019-04-25T21:15:41.289Z,100.00
2019-04-25T21:25:46.958Z,100.00
2019-04-25T21:35:50.849Z,100.00
2019-04-25T21:45:54.272Z,100.00
2019-04-25T21:55:57.624Z,100.00
2019-04-25T22:06:00.833Z,100.00
2019-04-25T22:16:04.569Z,100.00
2019-04-25T22:26:08.285Z,100.00
2019-04-25T22:36:15.184Z,100.00
2019-04-25T22:46:25.742Z,100.00
2019-04-25T22:56:25.707Z,100.00
2019-04-25T23:06:29.504Z,100.00
2019-04-25T23:16:34.132Z,100.00
2019-04-25T23:37:10.096Z,100.00
2019-04-25T23:47:14.398Z,100.00
2019-04-25T23:57:19.071Z,100.00
